• Join FlightAware (Why Join?)
  • Login
  • US Flag 
01:41AM EDT


 

Airport Tracker/Info


-or-


 

Live Flight TrackerFlight Track Log ✈ AWE3417 ✈ 28-Apr-2013 ✈ KMHT - KDCA

Flight Track Log - Related Links

Times and Time Zones

All times are in EDT time to prevent confusion due to time zone crossing. See the AWE3417 flight status page for this flight to view local times or setup timezone preferences in your user account.

Time Position Orientation Groundspeed Altitude Reporting Facility
EDT Latitude Longitude Course Direction KTS MPH feet Rate Location/Type
05:10PM 42.9167 -71.4167 202° Southwest 139 160 1,200  Level KA90
05:12PM 42.8667 -71.4500 206° Southwest 213 245 4,000 2,340 Climbing KA90
05:13PM 43.0532 -71.0905 65° Northeast  Level FlightAware Approximate
05:13PM 42.8561 -71.3836 102° East 287 330 6,500  Level Boston Center
05:14PM 43.0745 -70.9701 132° Southeast  Level FlightAware Approximate
05:14PM 42.9075 -71.3175 43° Northeast 281 323 9,900  Level Boston Center
05:15PM 43.0010 -70.8843 144° Southeast  Level FlightAware Approximate
05:15PM 42.9733 -71.2283 45° Northeast 281 323 12,900  Level Boston Center
05:16PM 42.9137 -70.9054 202° Southwest  Level FlightAware Approximate
05:16PM 43.0267 -71.1592 43° Northeast 292 336 15,700  Level Boston Center
05:17PM 43.0717 -71.0703 55° Northeast 298 343 18,000 1,920 Climbing Boston Center
05:18PM 43.0511 -70.9369 102° East 298 343 19,600 1,860 Climbing Boston Center
05:19PM 42.9506 -70.8942 163° South 280 322 21,800 2,100 Climbing Boston Center
05:20PM 42.8492 -70.9475 201° Southwest 296 341 23,800 1,800 Climbing Boston Center
05:21PM 42.7414 -71.0011 200° South 352 405 25,500 1,740 Climbing Boston Center
05:22PM 42.6486 -71.0853 214° Southwest 396 456 27,300 1,620 Climbing Boston Center
05:23PM 42.5939 -71.2161 240° Southwest 377 434 28,800 1,320 Climbing Boston Center
05:24PM 42.5411 -71.3439 241° Southwest 388 447 30,000 600 Climbing Boston Center
05:25PM 42.4858 -71.4717 240° Southwest 393 452 30,000  Level Boston Center
05:26PM 42.4286 -71.5933 238° Southwest 393 452 30,000 -60 Level Boston Center
05:27PM 42.3731 -71.7178 239° Southwest 393 452 29,900 -360 Descending Boston Center
05:28PM 42.3175 -71.8419 239° Southwest 393 452 29,300 -540 Descending Boston Center
05:29PM 42.2619 -71.9689 239° Southwest 393 452 28,900 -540 Descending Boston Center
05:30PM 42.2061 -72.0981 240° Southwest 393 452 28,300 -480 Descending Boston Center
05:31PM 42.1500 -72.2189 238° Southwest 393 452 28,000 -180 Descending Boston Center
05:32PM 42.0961 -72.3478 241° Southwest 393 452 28,000  Level Boston Center
05:33PM 42.0272 -72.4989 238° Southwest 393 452 28,000  Level Boston Center
05:34PM 41.9689 -72.6244 238° Southwest 393 452 28,000  Level Boston Center
05:35PM 41.9061 -72.7358 233° Southwest 388 447 28,000  Level Boston Center
05:36PM 41.8286 -72.8414 225° Southwest 394 453 28,000  Level Boston Center
05:37PM 41.7428 -72.9631 227° Southwest 408 470 28,000  Level Boston Center
05:38PM 41.6650 -73.0681 225° Southwest 402 463 28,000  Level Boston Center
05:39PM 41.5894 -73.1672 224° Southwest 396 456 28,000  Level Boston Center
05:40PM 41.4692 -73.3322 226° Southwest 391 450 28,000  Level New York Center
05:41PM 41.3942 -73.4317 225° Southwest 391 450 28,000  Level New York Center
05:42PM 41.3167 -73.5336 225° Southwest 391 450 28,000  Level New York Center
05:43PM 41.2497 -73.6383 230° Southwest 391 450 28,000  Level New York Center
05:44PM 41.1822 -73.7511 232° Southwest 391 450 28,000  Level New York Center
05:45PM 41.1169 -73.8586 231° Southwest 391 450 28,000  Level New York Center
05:46PM 41.0536 -73.9683 233° Southwest 391 450 28,000  Level New York Center
05:47PM 40.9883 -74.0781 232° Southwest 391 450 28,000  Level New York Center
05:48PM 40.9358 -74.1661 232° Southwest 391 450 28,000  Level New York Center
05:49PM 40.8528 -74.2964 230° Southwest 391 450 28,000  Level New York Center
05:50PM 40.7869 -74.4053 231° Southwest 391 450 28,000 -120 Level New York Center
05:51PM 40.7211 -74.5142 231° Southwest 391 450 27,800 -600 Descending New York Center
05:52PM 40.6611 -74.6283 235° Southwest 386 444 26,800 -1,020 Descending New York Center
05:53PM 40.6133 -74.7461 242° Southwest 376 433 25,800 -1,020 Descending New York Center
05:54PM 40.5658 -74.8581 241° Southwest 369 425 24,800 -960 Descending New York Center
05:55PM 40.5203 -74.9728 242° Southwest 364 419 23,900 -900 Descending New York Center
05:56PM 40.4664 -75.0786 236° Southwest 364 419 23,000 -960 Descending New York Center
05:57PM 40.4022 -75.1753 229° Southwest 359 413 22,000 -540 Descending New York Center
05:58PM 40.3444 -75.2750 233° Southwest 354 407 22,000  Level New York Center
05:59PM 40.2825 -75.3689 229° Southwest 349 402 22,000  Level New York Center
06:00PM 40.2289 -75.4578 232° Southwest 349 402 22,000  Level New York Center
06:01PM 40.1550 -75.5344 218° Southwest 349 402 22,000  Level New York Center
06:02PM 40.0675 -75.5853 204° Southwest 340 391 22,000  Level New York Center
06:03PM 39.9872 -75.6558 214° Southwest 346 398 22,000 -240 Level New York Center
06:04PM 39.9433 -75.7583 241° Southwest 336 387 21,600 -840 Descending New York Center
06:05PM 39.9242 -75.8706 257° West 316 364 20,400 -1,200 Descending New York Center
06:06PM 39.8581 -75.9522 223° Southwest 316 364 19,300 -1,200 Descending New York Center
06:07PM 39.7878 -76.0283 220° Southwest 326 375 18,100 -1,020 Descending New York Center
06:08PM 39.7217 -76.1069 222° Southwest 326 375 17,300 -1,080 Descending New York Center
06:09PM 39.6492 -76.1878 221° Southwest 326 375 16,000 -1,440 Descending New York Center
06:10PM 39.5833 -76.2500 216° Southwest 307 353 14,700 -1,380 Descending Potomac TRACON
06:11PM 39.5333 -76.3333 232° Southwest 304 350 13,400 -1,320 Descending Potomac TRACON
06:12PM 39.4667 -76.4000 218° Southwest 303 349 12,100 -720 Descending Potomac TRACON
06:13PM 39.4000 -76.4667 218° Southwest 302 348 12,000 -60 Descending Potomac TRACON
06:14PM 39.3333 -76.5167 210° Southwest 300 345 12,000 -240 Level Potomac TRACON
06:15PM 39.2667 -76.5833 218° Southwest 305 351 11,600 -960 Descending Potomac TRACON
06:16PM 39.1833 -76.6500 212° Southwest 289 333 10,000 -780 Descending Potomac TRACON
06:17PM 39.1333 -76.7167 226° Southwest 264 304 10,000  Level Potomac TRACON
06:18PM 39.0833 -76.7667 218° Southwest 266 306 10,000 -60 Level Potomac TRACON
06:19PM 39.0333 -76.8333 226° Southwest 264 304 9,900 -600 Descending Potomac TRACON
06:20PM 38.9833 -76.9000 226° Southwest 257 296 8,900 -600 Descending Potomac TRACON
06:21PM 38.9667 -76.9667 252° West 191 220 8,700 -600 Descending Potomac TRACON
06:22PM 38.9833 -77.0333 288° West 178 205 7,700 -1,380 Descending Potomac TRACON
06:23PM 39.0333 -77.0833 322° Northwest 210 242 5,900 -1,500 Descending Potomac TRACON
06:24PM 39.0667 -77.1333 311° West 200 230 4,600 -1,260 Descending Potomac TRACON
06:25PM 39.0667 -77.2000 270° West 185 213 3,400 -840 Descending Potomac TRACON
06:26PM 39.0333 -77.2333 218° Southwest 168 193 3,000 -240 Descending Potomac TRACON
06:27PM 39.0000 -77.2000 142° Southeast 157 181 3,000 -120 Level Potomac TRACON
06:28PM 38.9667 -77.1500 131° Southeast 158 182 2,800 -240 Descending Potomac TRACON